Hattiesburg Laurel Regional Airport
KPIB : rendu visible

Aérodrome :











RETROUVEZ-NOUS SUR...

 
LOGIN :

S'inscrire | Disclaimer

   EN    FR    IT 

 









Légende :    VFR   VFR Marginal   IFR   IFR Intensif   IFR Très Intensif
Visi : 
Plafond : 
>= 8 km
>= 3000ft
5 à 8 km
1000 à 3000 ft
1500m à 5 km
500 à 1000 ft
800 à 1500m
200 à 500 ft
< 800m
< 200 ft
Symboles :   Orages  Brouillard  Fortes neiges  Fortes précipitations  Vent > 20 kt






- Altitude de l'aérodrome : 298 ft
- Code IATA : PIB


KPIB - Hattiesburg Laurel Regional

DERNIER METAR :
  • 171156Z AUTO 00000KT 7SM CLR M01/M02 A3008 RMK AO2 SLP187 T10111022 10028 21011 55000 FZRANO

METARs EXPIRÉS :
  • 171056Z AUTO 00000KT 6SM BR CLR M01/M02 A3007 RMK AO2 SLP184 T10061017 FZRANO
  • 170956Z AUTO 00000KT 8SM CLR 00/M01 A3007 RMK AO2 SLP183 T00001011 FZRANO

TAF KPIB
Valide du 17 à 12h jusqu'au 18 à 12h UTC


171121Z 1712/1812 00000KT 5SM BR SKC
FM171400 VRB03KT P6SM SKC



MET'MAP, la Météo Aéronautique d'un coup d'oeil ! - Copyright ORBIFLY Décembre 2007 - Disclaimer

ORBIFLY MET'MAP TEAM :

Programmation & Développement : Alexandra Zaïnal
Conception & Développement : Baudouin d'Aumeries
Co-Programmation & Développement : Marc-Olivier Méhu
Soutien technique & logistique : Manuel Goepfert

Contact : metmap@orbifly.com




SOURCES & CREDITS :

   NOAA       Earth
Advisory